Time;durP1;ratioP1;P1;durP2;ratioP2;P2;SDS_P1;SDS_P2;PMS_P1;PMS_P2;Temp;Humidity;BMP_temperature;BMP_pressure;BME280_temperature;BME280_humidity;BME280_pressure;Samples;Min_cycle;Max_cycle;Signal;HPM_P1;HPM_P2
2022/06/25 00:01:47;;;;;;;7.13;4.13;;;;;;;;;;5003265;28;20238;-75
2022/06/25 00:06:59;;;;;;;5.33;4.00;;;;;;;;;;4993094;28;218382;-75
2022/06/25 00:09:25;;;;;;;7.30;4.20;;;;;;;;;;4985078;28;20645;-75
2022/06/25 00:14:37;;;;;;;6.90;4.33;;;;;;;;;;4995003;28;231798;-75
2022/06/25 00:17:21;;;;;;;6.93;4.63;;;;;;;;;;4987220;28;217196;-74
2022/06/25 00:19:48;;;;;;;6.00;4.57;;;;;;;;;;4995661;28;218185;-74
2022/06/25 00:22:15;;;;;;;5.27;4.60;;;;;;;;;;5001230;28;20223;-75
2022/06/25 00:24:41;;;;;;;8.80;4.53;;;;;;;;;;4941593;28;20227;-75
2022/06/25 00:27:08;;;;;;;6.33;4.73;;;;;;;;;;4971688;28;20234;-75
2022/06/25 00:29:35;;;;;;;6.93;4.30;;;;;;;;;;4957526;28;230495;-75
2022/06/25 00:32:04;;;;;;;5.57;4.20;;;;;;;;;;4972318;28;20228;-75
2022/06/25 00:34:31;;;;;;;6.07;4.20;;;;;;;;;;4993863;28;20235;-73
2022/06/25 00:36:58;;;;;;;5.80;4.70;;;;;;;;;;5004539;28;20227;-75
2022/06/25 00:39:43;;;;;;;4.93;3.80;;;;;;;;;;4979268;28;219811;-75
2022/06/25 00:42:11;;;;;;;6.47;5.17;;;;;;;;;;4980270;28;20220;-74
2022/06/25 00:44:38;;;;;;;5.47;4.97;;;;;;;;;;4986547;28;20223;-75
2022/06/25 00:47:05;;;;;;;6.07;4.43;;;;;;;;;;4988923;28;20238;-74
2022/06/25 00:49:31;;;;;;;6.10;4.53;;;;;;;;;;4977389;28;213980;-75
2022/06/25 00:51:58;;;;;;;6.30;4.33;;;;;;;;;;4965424;28;21012;-74
2022/06/25 00:54:25;;;;;;;7.20;4.80;;;;;;;;;;4961554;28;224058;-74
2022/06/25 00:56:51;;;;;;;4.90;3.90;;;;;;;;;;4990003;28;20239;-75
2022/06/25 00:59:19;;;;;;;4.97;4.20;;;;;;;;;;4994095;28;215285;-75
2022/06/25 01:02:03;;;;;;;6.13;4.33;;;;;;;;;;4981501;28;20219;-75
2022/06/25 01:04:30;;;;;;;5.07;4.10;;;;;;;;;;4927557;28;20231;-74
2022/06/25 01:06:57;;;;;;;5.90;4.00;;;;;;;;;;4970298;28;20674;-74
2022/06/25 01:09:23;;;;;;;4.97;4.47;;;;;;;;;;4970625;28;221781;-75
2022/06/25 01:11:51;;;;;;;7.53;4.37;;;;;;;;;;4970154;28;20741;-74
2022/06/25 01:14:17;;;;;;;6.03;4.20;;;;;;;;;;5003491;28;20223;-75
2022/06/25 01:16:44;;;;;;;7.10;4.40;;;;;;;;;;4984060;28;20230;-74
2022/06/25 01:19:11;;;;;;;6.73;4.70;;;;;;;;;;4985298;28;20230;-74
2022/06/25 01:21:41;;;;;;;6.23;4.70;;;;;;;;;;5000638;28;20223;-75
2022/06/25 01:24:25;;;;;;;6.57;4.33;;;;;;;;;;5002392;28;20215;-74
2022/06/25 01:26:52;;;;;;;5.50;4.87;;;;;;;;;;4994698;28;220485;-75
2022/06/25 01:29:19;;;;;;;7.30;4.93;;;;;;;;;;4970394;28;20223;-74
2022/06/25 01:31:45;;;;;;;7.77;4.17;;;;;;;;;;4977464;28;29886;-75
2022/06/25 01:34:12;;;;;;;6.77;4.80;;;;;;;;;;4967340;28;20236;-74
2022/06/25 01:36:39;;;;;;;5.60;4.97;;;;;;;;;;4985505;28;20603;-74
2022/06/25 01:39:05;;;;;;;6.23;4.73;;;;;;;;;;5002552;28;20231;-74
2022/06/25 01:41:32;;;;;;;7.93;4.93;;;;;;;;;;4984358;28;20559;-74
2022/06/25 01:43:58;;;;;;;5.70;4.37;;;;;;;;;;4998304;28;20215;-75
2022/06/25 01:46:42;;;;;;;5.20;3.80;;;;;;;;;;4991938;28;20276;-75
2022/06/25 01:49:10;;;;;;;4.90;3.83;;;;;;;;;;4978160;28;20306;-74
2022/06/25 01:51:36;;;;;;;6.00;4.60;;;;;;;;;;4967020;28;20231;-74
2022/06/25 01:54:03;;;;;;;6.47;4.13;;;;;;;;;;5003152;28;20365;-74
2022/06/25 01:56:30;;;;;;;6.33;4.77;;;;;;;;;;4980340;28;20271;-74
2022/06/25 01:58:56;;;;;;;17.00;5.53;;;;;;;;;;4991339;28;20234;-75
2022/06/25 02:01:24;;;;;;;13.80;5.30;;;;;;;;;;4987448;28;215234;-74
2022/06/25 02:03:51;;;;;;;10.23;4.30;;;;;;;;;;4954145;28;20224;-74
2022/06/25 02:06:18;;;;;;;8.00;4.57;;;;;;;;;;4997852;28;20234;-74
2022/06/25 02:09:03;;;;;;;14.33;4.67;;;;;;;;;;4954508;28;20673;-74
2022/06/25 02:11:30;;;;;;;12.47;4.50;;;;;;;;;;4983274;28;20227;-75
2022/06/25 02:13:56;;;;;;;7.73;5.00;;;;;;;;;;4957657;28;20224;-75
2022/06/25 02:16:25;;;;;;;8.30;4.57;;;;;;;;;;4984514;28;20233;-74
2022/06/25 02:18:52;;;;;;;6.37;4.67;;;;;;;;;;4985463;28;20227;-75
2022/06/25 02:21:19;;;;;;;6.10;4.60;;;;;;;;;;4984281;28;20686;-74
2022/06/25 02:23:49;;;;;;;6.83;5.03;;;;;;;;;;4999924;28;20258;-74
2022/06/25 02:26:16;;;;;;;7.50;4.97;;;;;;;;;;5003459;28;20225;-74
2022/06/25 02:28:42;;;;;;;5.33;4.60;;;;;;;;;;4980356;28;20235;-75
2022/06/25 02:31:09;;;;;;;8.93;4.70;;;;;;;;;;4977734;28;20223;-76
2022/06/25 02:33:36;;;;;;;5.13;4.57;;;;;;;;;;5001854;28;20582;-75
2022/06/25 02:36:03;;;;;;;8.07;4.83;;;;;;;;;;4981850;28;20222;-75
2022/06/25 02:38:30;;;;;;;11.13;5.30;;;;;;;;;;4966260;28;20235;-75
2022/06/25 02:40:57;;;;;;;8.87;4.83;;;;;;;;;;4986073;28;20242;-75
2022/06/25 02:43:28;;;;;;;10.50;5.00;;;;;;;;;;4976180;28;20278;-75
2022/06/25 02:46:07;;;;;;;7.13;4.67;;;;;;;;;;4960129;28;220334;-75
2022/06/25 02:48:34;;;;;;;12.20;5.00;;;;;;;;;;4969449;28;20233;-75
2022/06/25 02:51:01;;;;;;;5.13;4.43;;;;;;;;;;4924074;28;219266;-75
2022/06/25 02:53:28;;;;;;;6.73;4.93;;;;;;;;;;4981921;28;20227;-74
2022/06/25 02:58:56;;;;;;;6.30;4.40;;;;;;;;;;4972507;28;31738;-75
2022/06/25 03:01:38;;;;;;;5.80;5.00;;;;;;;;;;4977084;28;222958;-75
2022/06/25 03:04:29;;;;;;;11.20;4.87;;;;;;;;;;4962463;28;22783;-74
2022/06/25 03:06:56;;;;;;;8.73;4.40;;;;;;;;;;4984171;28;20227;-74
2022/06/25 03:09:24;;;;;;;7.47;5.13;;;;;;;;;;4945249;28;20233;-74
2022/06/25 03:11:53;;;;;;;6.70;4.80;;;;;;;;;;4974700;28;223036;-75
2022/06/25 03:14:21;;;;;;;6.57;4.93;;;;;;;;;;4982947;28;20245;-74
2022/06/25 03:16:48;;;;;;;6.50;4.93;;;;;;;;;;4964109;28;20219;-74
2022/06/25 03:19:15;;;;;;;9.57;4.70;;;;;;;;;;4987552;28;20254;-74
2022/06/25 03:21:44;;;;;;;6.00;5.00;;;;;;;;;;5003532;28;20694;-75
2022/06/25 03:24:11;;;;;;;5.47;4.30;;;;;;;;;;4987142;28;20239;-72
2022/06/25 03:26:56;;;;;;;5.17;4.53;;;;;;;;;;4966502;28;20223;-75
2022/06/25 03:29:24;;;;;;;7.23;4.80;;;;;;;;;;4988741;28;20269;-74
2022/06/25 03:31:51;;;;;;;5.17;4.67;;;;;;;;;;5004065;28;20223;-75
2022/06/25 03:34:40;;;;;;;6.40;4.07;;;;;;;;;;4968309;28;20240;-74
2022/06/25 03:37:26;;;;;;;5.70;4.27;;;;;;;;;;4956215;28;20719;-75
2022/06/25 03:39:55;;;;;;;5.80;5.20;;;;;;;;;;4985722;28;20246;-75
2022/06/25 03:42:22;;;;;;;5.80;4.70;;;;;;;;;;4959440;28;20232;-75
2022/06/25 03:44:58;;;;;;;7.40;4.70;;;;;;;;;;5002269;28;20246;-74
2022/06/25 03:47:30;;;;;;;7.50;4.50;;;;;;;;;;5000491;28;20708;-74
2022/06/25 03:50:00;;;;;;;5.90;4.70;;;;;;;;;;4945596;28;217597;-74
2022/06/25 03:52:27;;;;;;;6.77;4.30;;;;;;;;;;4962875;28;20211;-73
2022/06/25 03:54:54;;;;;;;6.33;4.53;;;;;;;;;;4923610;28;21098;-73
2022/06/25 03:57:21;;;;;;;9.93;4.47;;;;;;;;;;4944468;28;20228;-72
2022/06/25 04:00:15;;;;;;;6.47;4.07;;;;;;;;;;4955112;28;20246;-73
2022/06/25 04:02:49;;;;;;;4.57;4.03;;;;;;;;;;4975600;28;232419;-74
2022/06/25 04:05:48;;;;;;;5.13;3.87;;;;;;;;;;4958368;28;20362;-73
2022/06/25 04:08:33;;;;;;;4.33;3.93;;;;;;;;;;4977549;28;232206;-72
2022/06/25 04:11:02;;;;;;;5.17;4.27;;;;;;;;;;4963612;28;21815;-73
2022/06/25 04:13:29;;;;;;;5.10;4.10;;;;;;;;;;4919965;28;20297;-73
2022/06/25 04:15:56;;;;;;;4.23;3.83;;;;;;;;;;4984364;28;20234;-73
2022/06/25 04:18:26;;;;;;;6.90;4.47;;;;;;;;;;4954026;28;20239;-72
2022/06/25 04:20:53;;;;;;;8.80;4.63;;;;;;;;;;4998006;28;20227;-73
2022/06/25 04:23:37;;;;;;;10.27;4.80;;;;;;;;;;4923650;28;20231;-73
2022/06/25 04:26:07;;;;;;;13.73;4.97;;;;;;;;;;4949324;28;20239;-73
2022/06/25 04:31:36;;;;;;;5.30;4.17;;;;;;;;;;4938710;28;231473;-72
2022/06/25 04:34:06;;;;;;;6.70;4.90;;;;;;;;;;4962005;28;20591;-71
2022/06/25 04:36:33;;;;;;;8.80;4.13;;;;;;;;;;4962096;28;20633;-76
2022/06/25 04:39:09;;;;;;;5.30;4.13;;;;;;;;;;4905154;28;228902;-75
2022/06/25 04:41:37;;;;;;;7.07;4.10;;;;;;;;;;4908848;28;20822;-73
2022/06/25 04:44:09;;;;;;;4.37;3.97;;;;;;;;;;4944314;28;231100;-73
2022/06/25 04:46:36;;;;;;;5.20;4.07;;;;;;;;;;4873530;28;22710;-76
2022/06/25 04:49:04;;;;;;;8.70;4.70;;;;;;;;;;4901947;28;62476;-73
2022/06/25 04:51:40;;;;;;;5.47;4.20;;;;;;;;;;4959214;28;32243;-75
2022/06/25 04:54:06;;;;;;;5.27;3.90;;;;;;;;;;4993635;28;20310;-78
2022/06/25 04:56:56;;;;;;;7.37;4.33;;;;;;;;;;4963716;28;20295;-74
2022/06/25 04:59:23;;;;;;;10.00;4.13;;;;;;;;;;4950681;28;217327;-74
2022/06/25 05:01:51;;;;;;;7.87;4.20;;;;;;;;;;4940616;28;217484;-77
2022/06/25 05:04:24;;;;;;;4.90;3.77;;;;;;;;;;4888152;28;217878;-75
2022/06/25 05:06:51;;;;;;;4.83;3.80;;;;;;;;;;4960393;28;23640;-73
2022/06/25 05:09:18;;;;;;;5.40;3.73;;;;;;;;;;4953438;28;230388;-73
2022/06/25 05:11:46;;;;;;;4.33;3.57;;;;;;;;;;4939913;28;230960;-75
2022/06/25 05:14:13;;;;;;;5.67;4.23;;;;;;;;;;4836136;28;242642;-74
2022/06/25 05:16:40;;;;;;;4.97;3.50;;;;;;;;;;4882316;28;218724;-75
2022/06/25 05:19:07;;;;;;;6.73;3.60;;;;;;;;;;4917175;28;228307;-77
2022/06/25 05:21:35;;;;;;;4.43;3.90;;;;;;;;;;4927757;28;231042;-72
2022/06/25 05:24:07;;;;;;;4.60;3.70;;;;;;;;;;4976200;28;20314;-73
2022/06/25 05:26:34;;;;;;;4.63;3.73;;;;;;;;;;4985901;28;20305;-73
2022/06/25 05:29:01;;;;;;;4.00;3.60;;;;;;;;;;4986072;28;20246;-73
2022/06/25 05:31:28;;;;;;;4.47;4.07;;;;;;;;;;4995919;28;222848;-73
2022/06/25 05:33:55;;;;;;;4.97;3.30;;;;;;;;;;4981292;28;20231;-73
2022/06/25 05:36:21;;;;;;;4.17;3.80;;;;;;;;;;4984513;28;20215;-73
2022/06/25 05:38:49;;;;;;;4.07;3.70;;;;;;;;;;4996313;28;216402;-73
2022/06/25 05:41:16;;;;;;;5.73;3.60;;;;;;;;;;4982293;28;20223;-72
2022/06/25 05:43:42;;;;;;;3.93;3.30;;;;;;;;;;5004011;28;20227;-73
2022/06/25 05:46:09;;;;;;;5.43;3.60;;;;;;;;;;4956437;28;229042;-73
2022/06/25 05:48:37;;;;;;;4.57;3.10;;;;;;;;;;5000309;28;20226;-73
2022/06/25 05:51:04;;;;;;;4.40;3.30;;;;;;;;;;4969131;28;217730;-73
2022/06/25 05:53:31;;;;;;;6.53;3.47;;;;;;;;;;5001199;28;21746;-72
2022/06/25 05:55:57;;;;;;;4.47;3.10;;;;;;;;;;4974499;28;20238;-70
2022/06/25 05:58:24;;;;;;;5.13;3.50;;;;;;;;;;4962577;28;20249;-70
2022/06/25 06:00:51;;;;;;;6.43;3.30;;;;;;;;;;4996907;28;20234;-71
2022/06/25 06:03:17;;;;;;;7.17;3.70;;;;;;;;;;4982854;28;20791;-75
2022/06/25 06:05:44;;;;;;;3.57;3.27;;;;;;;;;;4988096;28;217578;-71
2022/06/25 06:08:11;;;;;;;4.13;3.57;;;;;;;;;;5001072;28;20238;-71
2022/06/25 06:10:38;;;;;;;5.30;3.33;;;;;;;;;;4998702;28;20304;-73
2022/06/25 06:13:04;;;;;;;5.90;3.30;;;;;;;;;;4963974;28;20227;-70
2022/06/25 06:15:31;;;;;;;4.17;3.53;;;;;;;;;;5003308;28;20706;-71
2022/06/25 06:17:58;;;;;;;5.60;3.70;;;;;;;;;;5000813;28;20234;-72
2022/06/25 06:20:24;;;;;;;10.73;3.60;;;;;;;;;;5002728;28;20235;-71
2022/06/25 06:22:51;;;;;;;3.57;3.27;;;;;;;;;;5001597;28;20262;-71
2022/06/25 06:25:17;;;;;;;4.93;3.83;;;;;;;;;;5002969;28;22959;-71
2022/06/25 06:27:44;;;;;;;7.17;4.33;;;;;;;;;;4970689;28;20721;-72
2022/06/25 06:30:11;;;;;;;5.80;4.53;;;;;;;;;;4997805;28;20232;-72
2022/06/25 06:32:38;;;;;;;5.37;3.43;;;;;;;;;;4983433;28;20230;-71
2022/06/25 06:35:05;;;;;;;4.40;3.40;;;;;;;;;;4983934;28;20227;-71
2022/06/25 06:37:31;;;;;;;5.07;3.90;;;;;;;;;;5003388;28;23443;-71
2022/06/25 06:39:59;;;;;;;6.20;4.07;;;;;;;;;;5001119;28;20499;-72
2022/06/25 06:42:25;;;;;;;4.90;4.10;;;;;;;;;;5003219;28;20229;-71
2022/06/25 06:44:53;;;;;;;7.17;3.87;;;;;;;;;;4986619;28;20263;-72
2022/06/25 06:47:20;;;;;;;6.83;3.90;;;;;;;;;;5002895;28;23483;-72
2022/06/25 06:49:47;;;;;;;4.53;3.53;;;;;;;;;;5001520;28;20308;-72
2022/06/25 06:52:14;;;;;;;3.80;3.47;;;;;;;;;;5004129;28;20231;-71
2022/06/25 06:54:40;;;;;;;3.20;2.90;;;;;;;;;;4985115;28;20239;-72
2022/06/25 06:57:07;;;;;;;3.80;3.40;;;;;;;;;;4995459;28;20231;-71
2022/06/25 06:59:34;;;;;;;4.60;3.40;;;;;;;;;;5003528;28;20231;-71
2022/06/25 07:02:01;;;;;;;3.70;3.30;;;;;;;;;;5004418;28;20276;-72
2022/06/25 07:04:27;;;;;;;4.00;3.33;;;;;;;;;;5003399;28;20236;-71
2022/06/25 07:06:54;;;;;;;4.77;3.50;;;;;;;;;;4987110;28;21052;-71
2022/06/25 07:09:21;;;;;;;5.23;3.30;;;;;;;;;;5005361;28;20317;-72
2022/06/25 07:11:47;;;;;;;4.80;3.33;;;;;;;;;;5004116;28;20238;-71
2022/06/25 07:14:14;;;;;;;3.77;3.43;;;;;;;;;;4996340;28;20224;-72
2022/06/25 07:16:41;;;;;;;5.63;3.50;;;;;;;;;;4999263;28;20702;-71
2022/06/25 07:19:10;;;;;;;4.13;3.43;;;;;;;;;;5003718;28;20227;-71
2022/06/25 07:21:37;;;;;;;3.93;2.90;;;;;;;;;;5002374;28;20227;-72
2022/06/25 07:24:04;;;;;;;6.20;3.17;;;;;;;;;;5004388;28;20241;-71
2022/06/25 07:26:30;;;;;;;4.03;2.83;;;;;;;;;;4986698;28;20226;-71
2022/06/25 07:28:57;;;;;;;6.20;3.20;;;;;;;;;;4988806;28;20264;-71
2022/06/25 07:31:23;;;;;;;3.83;3.13;;;;;;;;;;5000590;28;20905;-71
2022/06/25 07:33:50;;;;;;;6.47;3.20;;;;;;;;;;4988423;28;20288;-71
2022/06/25 07:36:17;;;;;;;6.53;3.00;;;;;;;;;;4991948;28;20250;-71
2022/06/25 07:38:44;;;;;;;7.50;3.07;;;;;;;;;;5006706;28;20267;-70
2022/06/25 07:41:10;;;;;;;4.27;3.20;;;;;;;;;;5004835;28;20586;-71
2022/06/25 07:43:37;;;;;;;5.87;2.90;;;;;;;;;;5004556;28;20239;-70
2022/06/25 07:46:04;;;;;;;4.23;3.07;;;;;;;;;;5002917;28;20236;-71
2022/06/25 07:48:31;;;;;;;4.27;3.10;;;;;;;;;;5003538;28;20587;-70
2022/06/25 07:53:43;;;;;;;5.57;3.63;;;;;;;;;;5001874;28;20230;-71
2022/06/25 07:56:27;;;;;;;4.37;3.07;;;;;;;;;;5002216;28;20248;-71
2022/06/25 07:58:54;;;;;;;4.37;2.97;;;;;;;;;;5005124;28;20238;-71
2022/06/25 08:01:21;;;;;;;5.93;3.33;;;;;;;;;;5002790;28;20594;-71
2022/06/25 08:03:48;;;;;;;4.40;2.80;;;;;;;;;;5005336;28;20241;-71
2022/06/25 08:06:34;;;;;;;4.13;3.13;;;;;;;;;;4982668;28;216286;-71
2022/06/25 08:09:01;;;;;;;5.10;3.13;;;;;;;;;;5001412;28;20264;-70
2022/06/25 08:11:28;;;;;;;5.67;2.93;;;;;;;;;;5004358;28;20232;-71
2022/06/25 08:13:54;;;;;;;4.80;2.67;;;;;;;;;;5003509;28;20585;-71
2022/06/25 08:16:23;;;;;;;5.57;3.17;;;;;;;;;;5006043;28;20244;-72
2022/06/25 08:18:53;;;;;;;3.40;2.87;;;;;;;;;;4988270;28;20250;-72
2022/06/25 08:21:20;;;;;;;3.40;3.10;;;;;;;;;;4986908;28;20230;-71
2022/06/25 08:23:47;;;;;;;3.20;2.80;;;;;;;;;;4986587;28;20230;-71
2022/06/25 08:26:15;;;;;;;3.27;2.97;;;;;;;;;;5005307;28;20312;-71
2022/06/25 08:28:44;;;;;;;4.00;3.00;;;;;;;;;;5003353;28;20231;-71
2022/06/25 08:31:11;;;;;;;4.40;3.27;;;;;;;;;;4986491;28;20307;-72
2022/06/25 08:33:38;;;;;;;3.40;3.10;;;;;;;;;;5005619;28;20222;-71
2022/06/25 08:36:04;;;;;;;8.40;2.93;;;;;;;;;;5003556;28;20587;-71
2022/06/25 08:38:31;;;;;;;2.87;2.67;;;;;;;;;;5005205;28;20233;-71
2022/06/25 08:41:15;;;;;;;4.60;3.00;;;;;;;;;;4987997;28;20313;-71
2022/06/25 08:43:42;;;;;;;4.00;3.13;;;;;;;;;;5004737;28;20233;-71
2022/06/25 08:46:09;;;;;;;3.73;3.00;;;;;;;;;;4985019;28;35728;-72
2022/06/25 08:48:37;;;;;;;4.40;2.80;;;;;;;;;;4987579;28;20597;-70
2022/06/25 08:51:04;;;;;;;7.10;3.07;;;;;;;;;;4986069;28;20250;-71
2022/06/25 08:53:31;;;;;;;2.73;2.53;;;;;;;;;;5004246;28;20231;-71
2022/06/25 08:55:58;;;;;;;3.47;2.87;;;;;;;;;;4985175;28;20235;-70
2022/06/25 08:58:25;;;;;;;5.43;3.03;;;;;;;;;;4996686;28;24624;-71
2022/06/25 09:00:52;;;;;;;4.17;2.60;;;;;;;;;;4981615;28;20274;-71
2022/06/25 09:03:19;;;;;;;4.67;2.80;;;;;;;;;;4987230;28;20292;-70
2022/06/25 09:05:46;;;;;;;4.27;2.90;;;;;;;;;;5003238;28;20234;-71
2022/06/25 09:08:13;;;;;;;3.17;2.73;;;;;;;;;;5004566;28;20346;-71
2022/06/25 09:10:41;;;;;;;4.77;3.10;;;;;;;;;;5002188;28;20623;-71
2022/06/25 09:13:09;;;;;;;5.43;2.83;;;;;;;;;;5002829;28;20245;-70
2022/06/25 09:15:40;;;;;;;4.77;3.00;;;;;;;;;;4977716;28;213613;-72
2022/06/25 09:18:08;;;;;;;6.10;2.80;;;;;;;;;;4988106;28;20258;-71
2022/06/25 09:20:34;;;;;;;3.83;2.70;;;;;;;;;;4996367;28;20246;-71
2022/06/25 09:23:03;;;;;;;5.77;3.10;;;;;;;;;;4979670;28;20586;-71
2022/06/25 09:25:30;;;;;;;2.80;2.60;;;;;;;;;;5001752;28;20242;-71
2022/06/25 09:27:57;;;;;;;3.23;2.87;;;;;;;;;;4986431;28;20232;-71
2022/06/25 09:30:25;;;;;;;4.73;2.70;;;;;;;;;;5000651;28;20254;-71
2022/06/25 09:32:55;;;;;;;5.80;2.83;;;;;;;;;;4990922;28;20236;-71
2022/06/25 09:35:31;;;;;;;3.83;2.60;;;;;;;;;;4998366;28;20244;-71
2022/06/25 09:38:24;;;;;;;2.70;2.50;;;;;;;;;;5002291;28;20259;-71
2022/06/25 09:40:57;;;;;;;3.63;2.60;;;;;;;;;;4998581;28;20686;-70
2022/06/25 09:43:24;;;;;;;2.60;2.30;;;;;;;;;;4982685;28;20307;-70
2022/06/25 09:45:52;;;;;;;3.03;2.40;;;;;;;;;;4996738;28;20233;-73
2022/06/25 09:48:22;;;;;;;3.60;2.30;;;;;;;;;;4984051;28;20227;-72
2022/06/25 09:51:08;;;;;;;5.13;2.67;;;;;;;;;;5001889;28;20322;-72
2022/06/25 09:53:45;;;;;;;5.17;2.43;;;;;;;;;;5003339;28;20239;-72
2022/06/25 09:56:16;;;;;;;6.57;2.47;;;;;;;;;;4999402;28;20229;-73
2022/06/25 09:58:43;;;;;;;4.17;2.53;;;;;;;;;;5000214;28;20695;-73
2022/06/25 10:01:10;;;;;;;2.90;2.70;;;;;;;;;;5003928;28;20235;-71
2022/06/25 10:03:36;;;;;;;2.50;2.30;;;;;;;;;;5002297;28;20229;-72
2022/06/25 10:06:14;;;;;;;3.83;2.27;;;;;;;;;;4971616;28;20314;-71
2022/06/25 10:08:49;;;;;;;4.33;2.30;;;;;;;;;;4984658;28;20278;-71
2022/06/25 10:11:19;;;;;;;3.73;2.47;;;;;;;;;;4984756;28;20226;-71
2022/06/25 10:13:47;;;;;;;4.10;2.30;;;;;;;;;;5001657;28;20305;-71
2022/06/25 10:16:14;;;;;;;4.90;2.30;;;;;;;;;;4998525;28;20227;-69
2022/06/25 10:18:41;;;;;;;3.10;2.53;;;;;;;;;;5001957;28;20219;-69
2022/06/25 10:21:07;;;;;;;2.97;2.20;;;;;;;;;;5004338;28;20246;-69
2022/06/25 10:23:38;;;;;;;2.47;2.27;;;;;;;;;;4998510;28;20690;-68
2022/06/25 10:26:05;;;;;;;4.07;2.33;;;;;;;;;;4983994;28;20314;-69
2022/06/25 10:28:32;;;;;;;4.73;2.30;;;;;;;;;;4983143;28;22457;-69
2022/06/25 10:31:01;;;;;;;3.90;2.50;;;;;;;;;;4986485;28;20239;-69
2022/06/25 10:33:28;;;;;;;2.67;2.30;;;;;;;;;;4963713;28;20598;-69
2022/06/25 10:35:56;;;;;;;4.70;2.30;;;;;;;;;;4985276;28;20234;-69
2022/06/25 10:38:24;;;;;;;4.40;2.50;;;;;;;;;;5000315;28;20241;-69
2022/06/25 10:43:56;;;;;;;2.43;2.20;;;;;;;;;;4984996;28;20235;-70
2022/06/25 10:46:29;;;;;;;3.83;2.07;;;;;;;;;;5002012;28;20579;-71
2022/06/25 10:49:12;;;;;;;3.27;2.03;;;;;;;;;;4997131;28;20250;-69
2022/06/25 10:51:42;;;;;;;4.57;2.30;;;;;;;;;;4989145;28;20591;-71
2022/06/25 10:54:26;;;;;;;3.60;2.30;;;;;;;;;;5001801;28;20350;-71
2022/06/25 10:56:54;;;;;;;4.43;2.47;;;;;;;;;;4997197;28;20246;-71
2022/06/25 10:59:47;;;;;;;3.43;2.40;;;;;;;;;;4999563;28;20235;-64
2022/06/25 11:02:16;;;;;;;6.73;2.53;;;;;;;;;;4996366;28;21002;-61
2022/06/25 11:05:01;;;;;;;4.20;2.30;;;;;;;;;;4988854;28;20222;-61
2022/06/25 11:07:27;;;;;;;5.03;2.30;;;;;;;;;;5000363;28;20318;-61
2022/06/25 11:09:58;;;;;;;4.30;2.40;;;;;;;;;;5002585;28;20238;-61
2022/06/25 11:12:25;;;;;;;2.80;2.50;;;;;;;;;;4984999;28;20593;-61
2022/06/25 11:14:58;;;;;;;2.43;2.20;;;;;;;;;;5002469;28;20587;-61
2022/06/25 11:17:25;;;;;;;3.73;2.57;;;;;;;;;;5001892;28;20310;-61
2022/06/25 11:19:51;;;;;;;3.23;2.70;;;;;;;;;;4972456;28;20219;-61
2022/06/25 11:22:18;;;;;;;4.40;2.27;;;;;;;;;;5003205;28;20223;-61
2022/06/25 11:30:23;;;;;;;4.33;2.60;;;;;;;;;;4999712;28;20222;-62
2022/06/25 11:32:50;;;;;;;3.80;2.70;;;;;;;;;;4986839;28;20567;-61
2022/06/25 11:35:17;;;;;;;5.40;3.00;;;;;;;;;;5000945;28;20215;-61
2022/06/25 11:37:44;;;;;;;4.67;2.77;;;;;;;;;;5003385;28;20243;-61
2022/06/25 11:40:16;;;;;;;4.93;2.83;;;;;;;;;;5004892;28;20242;-61
2022/06/25 11:42:43;;;;;;;4.57;2.70;;;;;;;;;;5005063;28;20239;-61
2022/06/25 11:45:10;;;;;;;7.07;3.00;;;;;;;;;;5006772;28;20219;-61
2022/06/25 11:47:37;;;;;;;6.17;2.60;;;;;;;;;;4973224;28;20234;-63
2022/06/25 11:50:08;;;;;;;5.83;2.87;;;;;;;;;;5003121;28;20285;-61
2022/06/25 11:52:37;;;;;;;6.30;2.43;;;;;;;;;;5004784;28;20245;-62
2022/06/25 11:55:04;;;;;;;3.60;2.70;;;;;;;;;;5004159;28;20330;-62
2022/06/25 11:57:34;;;;;;;5.77;3.10;;;;;;;;;;5006508;28;20309;-63
2022/06/25 12:00:02;;;;;;;4.37;2.80;;;;;;;;;;4988070;28;20235;-61
2022/06/25 12:02:35;;;;;;;2.90;2.53;;;;;;;;;;5004863;28;20732;-61
2022/06/25 12:05:03;;;;;;;4.67;2.70;;;;;;;;;;5006856;28;20753;-62
2022/06/25 12:07:48;;;;;;;2.80;2.50;;;;;;;;;;4997846;28;20215;-63
2022/06/25 12:10:14;;;;;;;3.33;2.60;;;;;;;;;;4988860;28;20231;-62
2022/06/25 12:12:41;;;;;;;4.83;2.63;;;;;;;;;;4989481;28;20226;-61
2022/06/25 12:15:08;;;;;;;3.20;2.90;;;;;;;;;;4989058;28;20220;-62
2022/06/25 12:17:38;;;;;;;6.30;2.40;;;;;;;;;;5004576;28;20591;-62
2022/06/25 12:20:05;;;;;;;2.77;2.50;;;;;;;;;;5004623;28;20270;-63
2022/06/25 12:22:32;;;;;;;2.67;2.47;;;;;;;;;;5005431;28;23731;-62
2022/06/25 12:25:00;;;;;;;3.17;2.53;;;;;;;;;;4958349;28;20235;-61
2022/06/25 12:27:27;;;;;;;7.00;2.70;;;;;;;;;;5004499;28;20227;-65
2022/06/25 12:29:55;;;;;;;5.47;2.33;;;;;;;;;;4987649;28;20231;-62
2022/06/25 12:32:35;;;;;;;6.93;2.40;;;;;;;;;;4984858;28;20282;-62
2022/06/25 12:35:02;;;;;;;8.03;2.90;;;;;;;;;;5003066;28;20365;-61
2022/06/25 12:37:30;;;;;;;3.03;2.33;;;;;;;;;;5006559;28;20227;-61
2022/06/25 12:39:58;;;;;;;6.60;2.10;;;;;;;;;;5001066;28;20231;-62
2022/06/25 12:42:25;;;;;;;3.23;2.10;;;;;;;;;;4995956;28;20219;-62
2022/06/25 12:44:52;;;;;;;5.77;2.10;;;;;;;;;;4996208;28;20619;-62
2022/06/25 12:47:18;;;;;;;2.27;2.03;;;;;;;;;;4985702;28;20238;-62
2022/06/25 12:49:48;;;;;;;2.97;2.20;;;;;;;;;;4983809;28;20231;-62
2022/06/25 12:52:17;;;;;;;3.70;2.40;;;;;;;;;;4984196;28;20235;-62
2022/06/25 12:54:44;;;;;;;3.53;2.40;;;;;;;;;;4999035;28;20255;-62
2022/06/25 12:57:18;;;;;;;6.70;2.33;;;;;;;;;;4986497;28;20226;-62
2022/06/25 12:59:45;;;;;;;5.13;2.30;;;;;;;;;;5003829;28;20305;-62
2022/06/25 13:02:12;;;;;;;8.53;2.50;;;;;;;;;;5002664;28;22089;-62
2022/06/25 13:04:38;;;;;;;7.87;2.57;;;;;;;;;;4985139;28;20231;-62
2022/06/25 13:07:05;;;;;;;2.50;2.30;;;;;;;;;;4987949;28;20633;-61
2022/06/25 13:09:36;;;;;;;7.83;2.87;;;;;;;;;;5001465;28;20215;-61
2022/06/25 13:12:04;;;;;;;6.50;2.40;;;;;;;;;;4969403;28;20238;-80
2022/06/25 13:14:31;;;;;;;4.27;2.40;;;;;;;;;;4971347;28;230480;-80
2022/06/25 13:16:58;;;;;;;3.20;2.40;;;;;;;;;;4946987;28;222187;-81
2022/06/25 13:19:25;;;;;;;3.50;2.20;;;;;;;;;;4928672;28;236723;-80
2022/06/25 13:21:52;;;;;;;1.97;1.87;;;;;;;;;;4964313;28;215210;-78
2022/06/25 13:24:19;;;;;;;3.53;2.37;;;;;;;;;;4994719;28;216686;-77
2022/06/25 13:26:46;;;;;;;2.67;2.03;;;;;;;;;;4957744;28;20230;-77
2022/06/25 13:29:13;;;;;;;3.17;2.20;;;;;;;;;;4974616;28;219421;-75
2022/06/25 13:31:40;;;;;;;2.70;2.50;;;;;;;;;;4931003;28;222107;-78
2022/06/25 13:34:10;;;;;;;5.80;2.20;;;;;;;;;;5002626;28;20350;-74
2022/06/25 13:36:37;;;;;;;3.00;2.10;;;;;;;;;;4981541;28;216854;-71
2022/06/25 13:39:04;;;;;;;4.23;2.40;;;;;;;;;;5004151;28;20694;-69
2022/06/25 13:41:31;;;;;;;2.73;2.20;;;;;;;;;;4982906;28;20592;-72
2022/06/25 13:43:58;;;;;;;2.47;2.03;;;;;;;;;;5002506;28;20687;-71
2022/06/25 13:46:25;;;;;;;2.97;2.77;;;;;;;;;;5003762;28;20237;-70
2022/06/25 13:48:53;;;;;;;2.60;2.40;;;;;;;;;;4983056;28;20239;-71
2022/06/25 13:51:19;;;;;;;2.47;2.27;;;;;;;;;;4984218;28;20232;-70
2022/06/25 13:53:46;;;;;;;4.80;2.30;;;;;;;;;;4982328;28;20224;-70
2022/06/25 13:56:13;;;;;;;2.80;2.00;;;;;;;;;;4984098;28;20235;-69
2022/06/25 13:58:39;;;;;;;2.47;2.00;;;;;;;;;;4980948;28;22935;-70
2022/06/25 14:01:06;;;;;;;3.07;2.10;;;;;;;;;;4983744;28;20278;-69
2022/06/25 14:03:33;;;;;;;3.33;2.20;;;;;;;;;;4957671;28;20231;-67
2022/06/25 14:06:02;;;;;;;3.50;2.30;;;;;;;;;;4988984;28;20721;-69
2022/06/25 14:08:29;;;;;;;3.27;2.50;;;;;;;;;;4991471;28;20258;-68
2022/06/25 14:11:14;;;;;;;3.93;2.27;;;;;;;;;;5001006;28;20285;-67
2022/06/25 14:13:41;;;;;;;2.83;2.10;;;;;;;;;;5002401;28;20253;-67
2022/06/25 14:16:07;;;;;;;3.63;2.40;;;;;;;;;;5004289;28;20230;-64
2022/06/25 14:18:34;;;;;;;3.57;1.80;;;;;;;;;;4986541;28;21126;-69
2022/06/25 14:21:02;;;;;;;4.13;2.10;;;;;;;;;;5002341;28;20284;-71
2022/06/25 14:23:29;;;;;;;3.50;2.00;;;;;;;;;;5003558;28;20727;-63
2022/06/25 14:25:56;;;;;;;2.50;2.00;;;;;;;;;;5001522;28;20686;-70
2022/06/25 14:28:23;;;;;;;3.27;2.00;;;;;;;;;;4992921;28;20361;-69
2022/06/25 14:30:50;;;;;;;2.13;1.93;;;;;;;;;;4993529;28;222689;-69
2022/06/25 14:33:16;;;;;;;8.30;2.73;;;;;;;;;;5003406;28;20231;-70
2022/06/25 14:42:20;;;;;;;2.97;2.17;;;;;;;;;;4993811;28;215611;-69
2022/06/25 14:44:12;;;;;;;4.57;2.53;;;;;;;;;;4999414;28;20231;-68
2022/06/25 14:46:39;;;;;;;6.03;2.47;;;;;;;;;;4966048;28;20237;-70
2022/06/25 14:49:05;;;;;;;3.70;2.43;;;;;;;;;;5002695;28;23014;-70
2022/06/25 14:51:32;;;;;;;7.70;2.53;;;;;;;;;;5000513;28;20249;-69
2022/06/25 14:53:59;;;;;;;3.67;2.60;;;;;;;;;;5003136;28;20230;-70
2022/06/25 14:56:27;;;;;;;3.17;2.33;;;;;;;;;;4983593;28;20222;-69
2022/06/25 14:58:53;;;;;;;4.13;2.93;;;;;;;;;;4999635;28;20303;-70
2022/06/25 15:01:20;;;;;;;6.07;2.57;;;;;;;;;;5000653;28;20253;-71
2022/06/25 15:03:48;;;;;;;2.50;2.30;;;;;;;;;;5002543;28;20313;-70
2022/06/25 15:06:15;;;;;;;3.33;2.73;;;;;;;;;;5000347;28;20717;-70
2022/06/25 15:08:42;;;;;;;4.40;3.03;;;;;;;;;;4983422;28;20256;-70
2022/06/25 15:11:09;;;;;;;3.63;2.97;;;;;;;;;;4998841;28;25826;-70
2022/06/25 15:13:36;;;;;;;5.67;3.03;;;;;;;;;;5003364;28;20637;-70
2022/06/25 15:16:03;;;;;;;3.70;2.27;;;;;;;;;;4988044;28;20248;-70
2022/06/25 15:18:30;;;;;;;4.07;2.43;;;;;;;;;;5003377;28;21710;-70
2022/06/25 15:20:57;;;;;;;3.17;2.47;;;;;;;;;;5002648;28;22455;-70